Englewood, OH (45322)

9:16 PM EDT on September 19, 2014 (GMT -0400)
Englewood SCC Campus/Kleptz YMCA | Change Station
CLOSE
Current Station
Personal Weather Station
Location: Englewood, OH
Elevation: 984 ft
Nearby Weather Stations

Elev 984 ft 39.87 °N, 84.33 °W | Updated 1 second ago

Partly Cloudy
Partly Cloudy
69.4 °F
Feels Like 69.4 °F
N
0.0
Wind Variable Wind from SE
Gusts 0.0 mph

Today
High -- | Low -- °F
--% Chance of Precip.
Yesterday
High -- | Low -- °F
Precip. -- in
7:21 AM 7:39 PM
Waning Crescent, 15% visible
Pressure 30.09 in
Visibility 10.0 miles
Clouds Few 25000 ft
Dew Point 52 °F
Humidity 54%
Rainfall 0.00 in
Snow Depth Not available.
UV 0.0 out of 12
Pollen 5.20 out of 12
Ozone Good
PM2.5 Good
Flu Activity Not available.
METAR KDAY 200056Z 13004KT 10SM FEW250 18/08 A3010 RMK AO2 SLP190 T01830083

More Conditions Fewer Conditions

Pressure 30.09 in
Visibility 10.0 miles
Clouds Few 25000 ft
Dew Point 52 °F
Humidity 54%
Rainfall 0.00 in
Snow Depth Not available.
UV 0.0 out of 12
Pollen 5.20 out of 12
Ozone Good
PM2.5 Good
Flu Activity Not available.
METAR KDAY 200056Z 13004KT 10SM FEW250 18/08 A3010 RMK AO2 SLP190 T01830083

More Conditions Fewer Conditions

10-Day Weather Forecast

Almanac

Astronomy

Sep. 19, 2014 Rise Set
Actual Time 7:21 AM EDT 7:39 PM EDT
Civil Twilight 6:54 AM EDT 8:06 PM EDT
Nautical Twilight 6:23 AM EDT 8:37 PM EDT
Astronomical Twilight 5:50 AM EDT 9:10 PM EDT
Moon 3:06 AM EDT (9/19) 5:07 PM EDT (9/19)
Length of Visible Light 13h 11m
Length of Day
12h 17m
Tomorrow will be 2m 37s shorter.
Waning Crescent, 15% of the Moon is Illuminated
Today
Waning Crescent
Sep 24
New
Oct 1
First Quarter
Oct 8
Full
Oct 15
Last Quarter

Today's Extremes

State Highs State Lows

Community

WunderPhotos

Upload Photos

1,754,755 photos uploaded!

WunderBlogs® & News

Nearby

Air Quality

  Air Quality AQ Index Pollutant
Yesterday Good
OZONE
Yesterday Good
PM2.5
Current Good
OZONE
Current Good
PM2.5
Friday Good
OZONE
Friday Good
PM2.5
Saturday Good
OZONE
Saturday Good
PM2.5
Sunday Good
PM2.5
Sunday Good
OZONE
Monday Good
OZONE
Monday Good
PM2.5
Tuesday Moderate
PM2.5
Tuesday Good
OZONE

Snow Depth

Station Depth Elevation
No new snow has been reported.

Earthquake Activity

City Distance Mag. Time & Date
No recent earthquake activity has been reported nearby.
Minimum magnitude displayed is 2.5.

Coastal Water Temperatures

Place Temperature
No Stations Reporting

Nearby Weather Stations